sensor_id;sensor_type;location;lat;lon;timestamp;P1;durP1;ratioP1;P2;durP2;ratioP2
10653;SDS011;5375;51.250;6.776;2023-04-15T00:01:29;1.73;;;1.13;;
10653;SDS011;5375;51.250;6.776;2023-04-15T00:03:57;1.50;;;1.10;;
10653;SDS011;5375;51.250;6.776;2023-04-15T00:06:23;1.43;;;1.03;;
10653;SDS011;5375;51.250;6.776;2023-04-15T00:08:50;1.50;;;1.10;;
10653;SDS011;5375;51.250;6.776;2023-04-15T00:11:16;2.33;;;1.10;;
10653;SDS011;5375;51.250;6.776;2023-04-15T00:13:42;2.07;;;1.27;;
10653;SDS011;5375;51.250;6.776;2023-04-15T00:16:20;2.07;;;0.93;;
10653;SDS011;5375;51.250;6.776;2023-04-15T00:18:46;1.50;;;1.17;;
10653;SDS011;5375;51.250;6.776;2023-04-15T00:21:12;1.33;;;1.10;;
10653;SDS011;5375;51.250;6.776;2023-04-15T00:23:37;2.07;;;1.00;;
10653;SDS011;5375;51.250;6.776;2023-04-15T00:26:03;2.80;;;1.13;;
10653;SDS011;5375;51.250;6.776;2023-04-15T00:28:28;2.30;;;1.40;;
10653;SDS011;5375;51.250;6.776;2023-04-15T00:30:55;2.07;;;1.30;;
10653;SDS011;5375;51.250;6.776;2023-04-15T00:33:20;2.57;;;1.10;;
10653;SDS011;5375;51.250;6.776;2023-04-15T00:35:46;1.83;;;1.30;;
10653;SDS011;5375;51.250;6.776;2023-04-15T00:38:11;2.03;;;1.40;;
10653;SDS011;5375;51.250;6.776;2023-04-15T00:40:37;1.77;;;1.10;;
10653;SDS011;5375;51.250;6.776;2023-04-15T00:43:02;1.37;;;1.03;;
10653;SDS011;5375;51.250;6.776;2023-04-15T00:45:28;3.37;;;1.20;;
10653;SDS011;5375;51.250;6.776;2023-04-15T00:47:54;3.20;;;1.30;;
10653;SDS011;5375;51.250;6.776;2023-04-15T00:50:20;2.27;;;1.20;;
10653;SDS011;5375;51.250;6.776;2023-04-15T00:52:58;1.60;;;1.30;;
10653;SDS011;5375;51.250;6.776;2023-04-15T00:55:24;1.80;;;1.30;;
10653;SDS011;5375;51.250;6.776;2023-04-15T00:57:50;1.83;;;1.40;;
10653;SDS011;5375;51.250;6.776;2023-04-15T01:00:16;2.23;;;1.37;;
10653;SDS011;5375;51.250;6.776;2023-04-15T01:02:42;2.07;;;1.37;;
10653;SDS011;5375;51.250;6.776;2023-04-15T01:05:07;3.13;;;1.87;;
10653;SDS011;5375;51.250;6.776;2023-04-15T01:07:33;2.40;;;1.40;;
10653;SDS011;5375;51.250;6.776;2023-04-15T01:09:59;2.40;;;1.40;;
10653;SDS011;5375;51.250;6.776;2023-04-15T01:12:25;1.53;;;1.30;;
10653;SDS011;5375;51.250;6.776;2023-04-15T01:14:58;2.70;;;1.80;;
10653;SDS011;5375;51.250;6.776;2023-04-15T01:17:24;2.27;;;1.43;;
10653;SDS011;5375;51.250;6.776;2023-04-15T01:19:50;6.05;;;1.90;;
10653;SDS011;5375;51.250;6.776;2023-04-15T01:22:16;2.43;;;1.60;;
10653;SDS011;5375;51.250;6.776;2023-04-15T01:24:44;3.03;;;1.77;;
10653;SDS011;5375;51.250;6.776;2023-04-15T01:27:43;3.03;;;1.70;;
10653;SDS011;5375;51.250;6.776;2023-04-15T01:30:10;2.85;;;1.70;;
10653;SDS011;5375;51.250;6.776;2023-04-15T01:32:36;3.37;;;1.70;;
10653;SDS011;5375;51.250;6.776;2023-04-15T01:35:20;3.83;;;1.63;;
10653;SDS011;5375;51.250;6.776;2023-04-15T01:37:46;2.93;;;1.80;;
10653;SDS011;5375;51.250;6.776;2023-04-15T01:40:12;3.77;;;1.83;;
10653;SDS011;5375;51.250;6.776;2023-04-15T01:42:38;2.10;;;1.40;;
10653;SDS011;5375;51.250;6.776;2023-04-15T01:45:03;2.40;;;1.67;;
10653;SDS011;5375;51.250;6.776;2023-04-15T01:50:05;4.33;;;1.90;;
10653;SDS011;5375;51.250;6.776;2023-04-15T01:52:32;2.43;;;1.73;;
10653;SDS011;5375;51.250;6.776;2023-04-15T01:54:58;2.63;;;1.70;;
10653;SDS011;5375;51.250;6.776;2023-04-15T01:57:23;3.67;;;1.80;;
10653;SDS011;5375;51.250;6.776;2023-04-15T01:59:49;3.47;;;2.00;;
10653;SDS011;5375;51.250;6.776;2023-04-15T02:02:15;6.83;;;2.10;;
10653;SDS011;5375;51.250;6.776;2023-04-15T02:04:41;2.57;;;1.77;;
10653;SDS011;5375;51.250;6.776;2023-04-15T02:07:07;3.77;;;1.70;;
10653;SDS011;5375;51.250;6.776;2023-04-15T02:09:32;3.90;;;1.90;;
10653;SDS011;5375;51.250;6.776;2023-04-15T02:11:58;3.27;;;1.87;;
10653;SDS011;5375;51.250;6.776;2023-04-15T02:14:24;3.87;;;2.20;;
10653;SDS011;5375;51.250;6.776;2023-04-15T02:16:51;3.57;;;2.33;;
10653;SDS011;5375;51.250;6.776;2023-04-15T02:19:16;4.17;;;2.10;;
10653;SDS011;5375;51.250;6.776;2023-04-15T02:21:42;4.57;;;2.03;;
10653;SDS011;5375;51.250;6.776;2023-04-15T02:24:07;4.20;;;1.97;;
10653;SDS011;5375;51.250;6.776;2023-04-15T02:26:33;4.17;;;1.90;;
10653;SDS011;5375;51.250;6.776;2023-04-15T02:28:59;4.40;;;1.90;;
10653;SDS011;5375;51.250;6.776;2023-04-15T02:31:24;3.00;;;2.00;;
10653;SDS011;5375;51.250;6.776;2023-04-15T02:33:50;4.97;;;2.00;;
10653;SDS011;5375;51.250;6.776;2023-04-15T02:36:16;5.37;;;2.20;;
10653;SDS011;5375;51.250;6.776;2023-04-15T02:38:44;3.23;;;1.80;;
10653;SDS011;5375;51.250;6.776;2023-04-15T02:41:10;5.93;;;2.33;;
10653;SDS011;5375;51.250;6.776;2023-04-15T02:43:36;4.63;;;2.17;;
10653;SDS011;5375;51.250;6.776;2023-04-15T02:46:04;3.63;;;1.90;;
10653;SDS011;5375;51.250;6.776;2023-04-15T02:48:30;3.83;;;1.77;;
10653;SDS011;5375;51.250;6.776;2023-04-15T02:51:11;3.37;;;2.20;;
10653;SDS011;5375;51.250;6.776;2023-04-15T02:53:44;3.47;;;2.10;;
10653;SDS011;5375;51.250;6.776;2023-04-15T02:56:11;6.50;;;2.00;;
10653;SDS011;5375;51.250;6.776;2023-04-15T02:58:39;3.73;;;1.97;;
10653;SDS011;5375;51.250;6.776;2023-04-15T03:01:05;4.80;;;2.10;;
10653;SDS011;5375;51.250;6.776;2023-04-15T03:03:32;3.40;;;1.70;;
10653;SDS011;5375;51.250;6.776;2023-04-15T03:05:58;3.00;;;1.77;;
10653;SDS011;5375;51.250;6.776;2023-04-15T03:08:24;3.17;;;1.70;;
10653;SDS011;5375;51.250;6.776;2023-04-15T03:10:50;4.47;;;2.17;;
10653;SDS011;5375;51.250;6.776;2023-04-15T03:13:17;4.43;;;2.27;;
10653;SDS011;5375;51.250;6.776;2023-04-15T03:15:44;3.80;;;2.27;;
10653;SDS011;5375;51.250;6.776;2023-04-15T03:18:12;5.37;;;2.00;;
10653;SDS011;5375;51.250;6.776;2023-04-15T03:20:38;3.43;;;2.03;;
10653;SDS011;5375;51.250;6.776;2023-04-15T03:23:03;3.70;;;2.13;;
10653;SDS011;5375;51.250;6.776;2023-04-15T03:25:29;3.00;;;1.93;;
10653;SDS011;5375;51.250;6.776;2023-04-15T03:27:55;5.50;;;2.80;;
10653;SDS011;5375;51.250;6.776;2023-04-15T03:30:21;3.77;;;1.83;;
10653;SDS011;5375;51.250;6.776;2023-04-15T03:32:46;6.63;;;2.23;;
10653;SDS011;5375;51.250;6.776;2023-04-15T03:35:12;4.37;;;2.17;;
10653;SDS011;5375;51.250;6.776;2023-04-15T03:37:37;3.63;;;2.10;;
10653;SDS011;5375;51.250;6.776;2023-04-15T03:40:03;4.33;;;1.87;;
10653;SDS011;5375;51.250;6.776;2023-04-15T03:42:29;4.20;;;1.97;;
10653;SDS011;5375;51.250;6.776;2023-04-15T03:44:55;3.90;;;1.90;;
10653;SDS011;5375;51.250;6.776;2023-04-15T03:47:21;3.07;;;2.07;;
10653;SDS011;5375;51.250;6.776;2023-04-15T03:49:46;4.40;;;2.13;;
10653;SDS011;5375;51.250;6.776;2023-04-15T03:52:12;4.40;;;2.40;;
10653;SDS011;5375;51.250;6.776;2023-04-15T03:54:41;5.63;;;2.13;;
10653;SDS011;5375;51.250;6.776;2023-04-15T03:57:06;1.97;;;1.77;;
10653;SDS011;5375;51.250;6.776;2023-04-15T03:59:32;7.37;;;2.40;;
10653;SDS011;5375;51.250;6.776;2023-04-15T04:01:58;3.43;;;2.10;;
10653;SDS011;5375;51.250;6.776;2023-04-15T04:04:23;3.13;;;2.20;;
10653;SDS011;5375;51.250;6.776;2023-04-15T04:06:49;3.50;;;2.00;;
10653;SDS011;5375;51.250;6.776;2023-04-15T04:09:18;5.13;;;2.00;;
10653;SDS011;5375;51.250;6.776;2023-04-15T04:11:43;4.03;;;1.93;;
10653;SDS011;5375;51.250;6.776;2023-04-15T04:14:09;5.90;;;1.77;;
10653;SDS011;5375;51.250;6.776;2023-04-15T04:16:35;3.30;;;1.80;;
10653;SDS011;5375;51.250;6.776;2023-04-15T04:19:01;7.03;;;2.17;;
10653;SDS011;5375;51.250;6.776;2023-04-15T04:21:26;3.20;;;2.10;;
10653;SDS011;5375;51.250;6.776;2023-04-15T04:23:58;3.77;;;2.33;;
10653;SDS011;5375;51.250;6.776;2023-04-15T04:26:31;6.07;;;1.90;;
10653;SDS011;5375;51.250;6.776;2023-04-15T04:28:56;3.13;;;2.00;;
10653;SDS011;5375;51.250;6.776;2023-04-15T04:31:22;4.53;;;2.10;;
10653;SDS011;5375;51.250;6.776;2023-04-15T04:33:47;3.03;;;1.97;;
10653;SDS011;5375;51.250;6.776;2023-04-15T04:36:13;3.53;;;2.00;;
10653;SDS011;5375;51.250;6.776;2023-04-15T04:38:38;3.63;;;2.20;;
10653;SDS011;5375;51.250;6.776;2023-04-15T04:41:04;5.33;;;2.47;;
10653;SDS011;5375;51.250;6.776;2023-04-15T04:43:30;3.73;;;2.07;;
10653;SDS011;5375;51.250;6.776;2023-04-15T04:45:55;4.90;;;2.03;;
10653;SDS011;5375;51.250;6.776;2023-04-15T04:48:21;3.50;;;2.00;;
10653;SDS011;5375;51.250;6.776;2023-04-15T04:50:47;4.50;;;2.03;;
10653;SDS011;5375;51.250;6.776;2023-04-15T04:53:18;3.50;;;1.97;;
10653;SDS011;5375;51.250;6.776;2023-04-15T04:55:44;3.07;;;2.20;;
10653;SDS011;5375;51.250;6.776;2023-04-15T04:58:10;2.90;;;2.17;;
10653;SDS011;5375;51.250;6.776;2023-04-15T05:00:35;4.03;;;2.23;;
10653;SDS011;5375;51.250;6.776;2023-04-15T05:03:02;2.67;;;2.13;;
10653;SDS011;5375;51.250;6.776;2023-04-15T05:05:28;6.10;;;2.67;;
10653;SDS011;5375;51.250;6.776;2023-04-15T05:07:54;4.37;;;2.30;;
10653;SDS011;5375;51.250;6.776;2023-04-15T05:10:19;4.13;;;2.47;;
10653;SDS011;5375;51.250;6.776;2023-04-15T05:12:45;3.27;;;2.20;;
10653;SDS011;5375;51.250;6.776;2023-04-15T05:15:11;3.20;;;2.03;;
10653;SDS011;5375;51.250;6.776;2023-04-15T05:17:37;4.97;;;2.43;;
10653;SDS011;5375;51.250;6.776;2023-04-15T05:20:02;2.80;;;2.00;;
10653;SDS011;5375;51.250;6.776;2023-04-15T05:22:28;4.57;;;2.40;;
10653;SDS011;5375;51.250;6.776;2023-04-15T05:24:54;2.90;;;2.33;;
10653;SDS011;5375;51.250;6.776;2023-04-15T05:27:20;2.37;;;1.90;;
10653;SDS011;5375;51.250;6.776;2023-04-15T05:29:47;2.73;;;2.17;;
10653;SDS011;5375;51.250;6.776;2023-04-15T05:32:12;2.60;;;2.20;;
10653;SDS011;5375;51.250;6.776;2023-04-15T05:34:38;3.87;;;2.30;;
10653;SDS011;5375;51.250;6.776;2023-04-15T05:37:03;3.73;;;2.33;;
10653;SDS011;5375;51.250;6.776;2023-04-15T05:39:29;4.73;;;2.13;;
10653;SDS011;5375;51.250;6.776;2023-04-15T05:41:56;4.60;;;2.20;;
10653;SDS011;5375;51.250;6.776;2023-04-15T05:44:22;2.80;;;2.10;;
10653;SDS011;5375;51.250;6.776;2023-04-15T05:46:47;3.33;;;2.38;;
10653;SDS011;5375;51.250;6.776;2023-04-15T05:49:13;2.63;;;1.83;;
10653;SDS011;5375;51.250;6.776;2023-04-15T05:51:39;3.87;;;2.13;;
10653;SDS011;5375;51.250;6.776;2023-04-15T05:54:04;3.70;;;2.00;;
10653;SDS011;5375;51.250;6.776;2023-04-15T05:56:30;3.13;;;2.23;;
10653;SDS011;5375;51.250;6.776;2023-04-15T05:58:56;3.80;;;2.57;;
10653;SDS011;5375;51.250;6.776;2023-04-15T06:01:22;2.97;;;2.03;;
10653;SDS011;5375;51.250;6.776;2023-04-15T06:03:48;3.10;;;2.15;;
10653;SDS011;5375;51.250;6.776;2023-04-15T06:06:14;3.67;;;2.40;;
10653;SDS011;5375;51.250;6.776;2023-04-15T06:08:39;5.23;;;2.20;;
10653;SDS011;5375;51.250;6.776;2023-04-15T06:11:05;3.57;;;1.90;;
10653;SDS011;5375;51.250;6.776;2023-04-15T06:13:31;2.93;;;1.97;;
10653;SDS011;5375;51.250;6.776;2023-04-15T06:15:57;3.27;;;2.17;;
10653;SDS011;5375;51.250;6.776;2023-04-15T06:18:23;3.93;;;2.03;;
10653;SDS011;5375;51.250;6.776;2023-04-15T06:20:49;3.37;;;2.23;;
10653;SDS011;5375;51.250;6.776;2023-04-15T06:23:15;3.00;;;1.90;;
10653;SDS011;5375;51.250;6.776;2023-04-15T06:25:43;2.40;;;1.90;;
10653;SDS011;5375;51.250;6.776;2023-04-15T06:28:08;2.50;;;1.90;;
10653;SDS011;5375;51.250;6.776;2023-04-15T06:30:41;3.80;;;1.93;;
10653;SDS011;5375;51.250;6.776;2023-04-15T06:33:07;2.43;;;1.80;;
10653;SDS011;5375;51.250;6.776;2023-04-15T06:35:37;2.63;;;2.10;;
10653;SDS011;5375;51.250;6.776;2023-04-15T06:38:03;2.93;;;2.23;;
10653;SDS011;5375;51.250;6.776;2023-04-15T06:40:29;4.10;;;2.00;;
10653;SDS011;5375;51.250;6.776;2023-04-15T06:42:55;5.20;;;2.20;;
10653;SDS011;5375;51.250;6.776;2023-04-15T06:45:20;3.90;;;2.10;;
10653;SDS011;5375;51.250;6.776;2023-04-15T06:47:46;3.60;;;2.07;;
10653;SDS011;5375;51.250;6.776;2023-04-15T06:50:12;3.58;;;2.00;;
10653;SDS011;5375;51.250;6.776;2023-04-15T06:52:38;2.53;;;1.73;;
10653;SDS011;5375;51.250;6.776;2023-04-15T06:55:05;2.37;;;2.07;;
10653;SDS011;5375;51.250;6.776;2023-04-15T06:57:32;2.97;;;1.90;;
10653;SDS011;5375;51.250;6.776;2023-04-15T06:59:58;3.03;;;1.80;;
10653;SDS011;5375;51.250;6.776;2023-04-15T07:02:25;2.93;;;1.60;;
10653;SDS011;5375;51.250;6.776;2023-04-15T07:04:51;3.93;;;1.90;;
10653;SDS011;5375;51.250;6.776;2023-04-15T07:07:17;2.53;;;1.80;;
10653;SDS011;5375;51.250;6.776;2023-04-15T07:09:43;3.47;;;2.00;;
10653;SDS011;5375;51.250;6.776;2023-04-15T07:12:09;3.30;;;1.97;;
10653;SDS011;5375;51.250;6.776;2023-04-15T07:14:35;2.80;;;1.70;;
10653;SDS011;5375;51.250;6.776;2023-04-15T07:17:04;2.87;;;1.80;;
10653;SDS011;5375;51.250;6.776;2023-04-15T07:19:30;2.23;;;1.83;;
10653;SDS011;5375;51.250;6.776;2023-04-15T07:21:56;2.57;;;1.80;;
10653;SDS011;5375;51.250;6.776;2023-04-15T07:24:21;2.13;;;1.83;;
10653;SDS011;5375;51.250;6.776;2023-04-15T07:26:50;4.10;;;1.90;;
10653;SDS011;5375;51.250;6.776;2023-04-15T07:29:23;4.50;;;1.73;;
10653;SDS011;5375;51.250;6.776;2023-04-15T07:31:49;2.43;;;1.63;;
10653;SDS011;5375;51.250;6.776;2023-04-15T07:34:15;4.83;;;1.90;;
10653;SDS011;5375;51.250;6.776;2023-04-15T07:36:41;2.03;;;1.83;;
10653;SDS011;5375;51.250;6.776;2023-04-15T07:39:07;5.03;;;1.67;;
10653;SDS011;5375;51.250;6.776;2023-04-15T07:41:47;1.97;;;1.73;;
10653;SDS011;5375;51.250;6.776;2023-04-15T07:44:13;2.87;;;1.70;;
10653;SDS011;5375;51.250;6.776;2023-04-15T07:46:39;2.33;;;1.80;;
10653;SDS011;5375;51.250;6.776;2023-04-15T07:49:07;3.50;;;1.50;;
10653;SDS011;5375;51.250;6.776;2023-04-15T07:51:33;3.90;;;1.75;;
10653;SDS011;5375;51.250;6.776;2023-04-15T07:53:58;2.40;;;1.90;;
10653;SDS011;5375;51.250;6.776;2023-04-15T07:56:24;2.50;;;1.60;;
10653;SDS011;5375;51.250;6.776;2023-04-15T07:58:50;2.87;;;2.00;;
10653;SDS011;5375;51.250;6.776;2023-04-15T08:01:16;3.20;;;1.70;;
10653;SDS011;5375;51.250;6.776;2023-04-15T08:03:41;2.37;;;1.77;;
10653;SDS011;5375;51.250;6.776;2023-04-15T08:06:07;3.13;;;1.80;;
10653;SDS011;5375;51.250;6.776;2023-04-15T08:08:33;5.70;;;1.67;;
10653;SDS011;5375;51.250;6.776;2023-04-15T08:10:58;2.57;;;1.50;;
10653;SDS011;5375;51.250;6.776;2023-04-15T08:13:24;4.67;;;1.80;;
10653;SDS011;5375;51.250;6.776;2023-04-15T08:15:52;2.80;;;1.50;;
10653;SDS011;5375;51.250;6.776;2023-04-15T08:18:37;2.93;;;1.73;;
10653;SDS011;5375;51.250;6.776;2023-04-15T08:21:02;2.60;;;1.83;;
10653;SDS011;5375;51.250;6.776;2023-04-15T08:23:28;3.33;;;2.00;;
10653;SDS011;5375;51.250;6.776;2023-04-15T08:25:54;4.13;;;2.10;;
10653;SDS011;5375;51.250;6.776;2023-04-15T08:28:19;1.93;;;1.50;;
10653;SDS011;5375;51.250;6.776;2023-04-15T08:30:45;6.07;;;1.70;;
10653;SDS011;5375;51.250;6.776;2023-04-15T08:33:11;3.07;;;1.83;;
10653;SDS011;5375;51.250;6.776;2023-04-15T08:35:37;2.90;;;1.60;;
10653;SDS011;5375;51.250;6.776;2023-04-15T08:38:02;2.90;;;1.67;;
10653;SDS011;5375;51.250;6.776;2023-04-15T08:40:29;2.40;;;1.50;;
10653;SDS011;5375;51.250;6.776;2023-04-15T08:43:06;4.13;;;1.57;;
10653;SDS011;5375;51.250;6.776;2023-04-15T08:45:36;3.00;;;1.60;;
10653;SDS011;5375;51.250;6.776;2023-04-15T08:48:03;2.87;;;1.37;;
10653;SDS011;5375;51.250;6.776;2023-04-15T08:50:31;4.90;;;1.50;;
10653;SDS011;5375;51.250;6.776;2023-04-15T08:52:57;1.37;;;1.20;;
10653;SDS011;5375;51.250;6.776;2023-04-15T08:55:25;2.50;;;1.80;;
10653;SDS011;5375;51.250;6.776;2023-04-15T08:57:54;2.60;;;1.33;;
10653;SDS011;5375;51.250;6.776;2023-04-15T09:00:20;3.17;;;1.60;;
10653;SDS011;5375;51.250;6.776;2023-04-15T09:02:47;1.63;;;1.43;;
10653;SDS011;5375;51.250;6.776;2023-04-15T09:05:13;1.97;;;1.30;;
10653;SDS011;5375;51.250;6.776;2023-04-15T09:07:38;2.00;;;1.37;;
10653;SDS011;5375;51.250;6.776;2023-04-15T09:10:04;1.90;;;1.30;;
10653;SDS011;5375;51.250;6.776;2023-04-15T09:12:32;1.90;;;1.43;;
10653;SDS011;5375;51.250;6.776;2023-04-15T09:15:00;1.67;;;1.40;;
10653;SDS011;5375;51.250;6.776;2023-04-15T09:17:26;1.90;;;1.30;;
10653;SDS011;5375;51.250;6.776;2023-04-15T09:22:40;2.27;;;1.57;;
10653;SDS011;5375;51.250;6.776;2023-04-15T09:27:46;1.80;;;1.20;;
10653;SDS011;5375;51.250;6.776;2023-04-15T09:30:13;2.20;;;1.40;;
10653;SDS011;5375;51.250;6.776;2023-04-15T09:32:47;1.40;;;1.00;;
10653;SDS011;5375;51.250;6.776;2023-04-15T09:35:24;2.23;;;1.10;;
10653;SDS011;5375;51.250;6.776;2023-04-15T09:37:51;2.60;;;1.40;;
10653;SDS011;5375;51.250;6.776;2023-04-15T09:40:29;2.00;;;1.00;;
10653;SDS011;5375;51.250;6.776;2023-04-15T09:42:56;1.10;;;0.90;;
10653;SDS011;5375;51.250;6.776;2023-04-15T09:45:22;3.33;;;1.27;;
10653;SDS011;5375;51.250;6.776;2023-04-15T09:47:48;2.70;;;1.30;;
10653;SDS011;5375;51.250;6.776;2023-04-15T09:50:17;1.10;;;1.00;;
10653;SDS011;5375;51.250;6.776;2023-04-15T09:52:44;1.70;;;1.17;;
10653;SDS011;5375;51.250;6.776;2023-04-15T09:55:10;3.13;;;1.10;;
10653;SDS011;5375;51.250;6.776;2023-04-15T09:57:38;1.43;;;1.03;;
10653;SDS011;5375;51.250;6.776;2023-04-15T10:00:08;2.63;;;1.00;;
10653;SDS011;5375;51.250;6.776;2023-04-15T10:02:35;2.00;;;1.07;;
10653;SDS011;5375;51.250;6.776;2023-04-15T10:05:02;2.03;;;1.10;;
10653;SDS011;5375;51.250;6.776;2023-04-15T10:07:28;2.27;;;1.00;;
10653;SDS011;5375;51.250;6.776;2023-04-15T10:09:54;2.47;;;1.30;;
10653;SDS011;5375;51.250;6.776;2023-04-15T10:12:20;3.20;;;1.20;;
10653;SDS011;5375;51.250;6.776;2023-04-15T10:14:47;0.97;;;0.87;;
10653;SDS011;5375;51.250;6.776;2023-04-15T10:17:17;2.63;;;1.10;;
10653;SDS011;5375;51.250;6.776;2023-04-15T10:19:46;1.00;;;0.90;;
10653;SDS011;5375;51.250;6.776;2023-04-15T10:22:13;1.77;;;0.97;;
10653;SDS011;5375;51.250;6.776;2023-04-15T10:24:40;1.10;;;0.90;;
10653;SDS011;5375;51.250;6.776;2023-04-15T10:27:07;2.30;;;1.07;;
10653;SDS011;5375;51.250;6.776;2023-04-15T10:29:33;0.93;;;0.80;;
10653;SDS011;5375;51.250;6.776;2023-04-15T10:31:59;1.73;;;1.20;;
10653;SDS011;5375;51.250;6.776;2023-04-15T10:34:26;1.30;;;0.77;;
10653;SDS011;5375;51.250;6.776;2023-04-15T10:36:57;1.20;;;0.70;;
10653;SDS011;5375;51.250;6.776;2023-04-15T10:42:12;2.67;;;0.80;;
10653;SDS011;5375;51.250;6.776;2023-04-15T10:44:47;1.60;;;0.80;;
10653;SDS011;5375;51.250;6.776;2023-04-15T10:47:15;0.90;;;0.77;;
10653;SDS011;5375;51.250;6.776;2023-04-15T10:49:49;1.10;;;0.77;;
10653;SDS011;5375;51.250;6.776;2023-04-15T10:52:16;1.00;;;0.60;;
10653;SDS011;5375;51.250;6.776;2023-04-15T10:54:47;0.70;;;0.70;;
10653;SDS011;5375;51.250;6.776;2023-04-15T11:02:37;1.27;;;0.80;;
10653;SDS011;5375;51.250;6.776;2023-04-15T11:05:06;1.83;;;0.90;;
10653;SDS011;5375;51.250;6.776;2023-04-15T11:07:36;0.90;;;0.77;;
10653;SDS011;5375;51.250;6.776;2023-04-15T11:12:50;1.27;;;0.80;;
10653;SDS011;5375;51.250;6.776;2023-04-15T11:17:54;0.97;;;0.70;;
10653;SDS011;5375;51.250;6.776;2023-04-15T11:20:47;0.97;;;0.70;;
10653;SDS011;5375;51.250;6.776;2023-04-15T11:23:27;1.30;;;0.83;;
10653;SDS011;5375;51.250;6.776;2023-04-15T11:25:58;0.90;;;0.80;;
10653;SDS011;5375;51.250;6.776;2023-04-15T11:28:26;0.83;;;0.60;;
10653;SDS011;5375;51.250;6.776;2023-04-15T11:30:53;1.20;;;0.70;;
10653;SDS011;5375;51.250;6.776;2023-04-15T11:33:19;2.17;;;0.80;;
10653;SDS011;5375;51.250;6.776;2023-04-15T11:35:46;2.70;;;0.70;;
10653;SDS011;5375;51.250;6.776;2023-04-15T11:38:12;1.07;;;0.80;;
10653;SDS011;5375;51.250;6.776;2023-04-15T11:40:38;1.30;;;0.70;;
10653;SDS011;5375;51.250;6.776;2023-04-15T11:45:33;1.00;;;0.70;;
10653;SDS011;5375;51.250;6.776;2023-04-15T11:48:07;1.07;;;0.60;;
10653;SDS011;5375;51.250;6.776;2023-04-15T11:50:34;0.73;;;0.67;;
10653;SDS011;5375;51.250;6.776;2023-04-15T11:53:04;1.00;;;0.67;;
10653;SDS011;5375;51.250;6.776;2023-04-15T11:55:31;1.47;;;1.10;;
10653;SDS011;5375;51.250;6.776;2023-04-15T12:00:49;1.20;;;0.70;;
10653;SDS011;5375;51.250;6.776;2023-04-15T12:11:39;0.97;;;0.70;;
10653;SDS011;5375;51.250;6.776;2023-04-15T12:16:57;1.10;;;0.80;;
10653;SDS011;5375;51.250;6.776;2023-04-15T12:21:52;1.00;;;0.73;;
10653;SDS011;5375;51.250;6.776;2023-04-15T12:24:22;0.60;;;0.60;;
10653;SDS011;5375;51.250;6.776;2023-04-15T12:26:52;0.93;;;0.80;;
10653;SDS011;5375;51.250;6.776;2023-04-15T12:29:24;0.80;;;0.70;;
10653;SDS011;5375;51.250;6.776;2023-04-15T12:31:55;0.90;;;0.63;;
10653;SDS011;5375;51.250;6.776;2023-04-15T12:34:26;0.63;;;0.60;;
10653;SDS011;5375;51.250;6.776;2023-04-15T12:36:56;0.80;;;0.50;;
10653;SDS011;5375;51.250;6.776;2023-04-15T12:39:23;0.60;;;0.60;;
10653;SDS011;5375;51.250;6.776;2023-04-15T12:41:50;1.03;;;0.70;;
10653;SDS011;5375;51.250;6.776;2023-04-15T12:44:16;0.70;;;0.70;;
10653;SDS011;5375;51.250;6.776;2023-04-15T12:46:42;1.47;;;0.90;;
10653;SDS011;5375;51.250;6.776;2023-04-15T12:49:10;3.90;;;0.80;;
10653;SDS011;5375;51.250;6.776;2023-04-15T12:51:36;2.03;;;0.70;;
10653;SDS011;5375;51.250;6.776;2023-04-15T12:54:01;0.60;;;0.60;;
10653;SDS011;5375;51.250;6.776;2023-04-15T12:56:27;1.00;;;0.70;;
10653;SDS011;5375;51.250;6.776;2023-04-15T12:58:53;1.73;;;0.70;;
10653;SDS011;5375;51.250;6.776;2023-04-15T13:01:19;2.90;;;0.80;;
10653;SDS011;5375;51.250;6.776;2023-04-15T13:03:45;1.30;;;0.70;;
10653;SDS011;5375;51.250;6.776;2023-04-15T13:06:10;1.50;;;0.70;;
10653;SDS011;5375;51.250;6.776;2023-04-15T13:08:36;1.27;;;0.60;;
10653;SDS011;5375;51.250;6.776;2023-04-15T13:11:02;2.47;;;0.90;;
10653;SDS011;5375;51.250;6.776;2023-04-15T13:13:28;7.80;;;1.17;;
10653;SDS011;5375;51.250;6.776;2023-04-15T13:15:55;4.90;;;1.00;;
10653;SDS011;5375;51.250;6.776;2023-04-15T13:18:21;14.40;;;1.10;;
10653;SDS011;5375;51.250;6.776;2023-04-15T13:20:47;4.13;;;1.07;;
10653;SDS011;5375;51.250;6.776;2023-04-15T13:23:13;2.37;;;1.07;;
10653;SDS011;5375;51.250;6.776;2023-04-15T13:25:39;3.03;;;0.80;;
10653;SDS011;5375;51.250;6.776;2023-04-15T13:28:05;6.07;;;1.17;;
10653;SDS011;5375;51.250;6.776;2023-04-15T13:30:31;1.10;;;0.77;;
10653;SDS011;5375;51.250;6.776;2023-04-15T13:32:56;2.67;;;0.70;;
10653;SDS011;5375;51.250;6.776;2023-04-15T13:35:22;2.00;;;0.80;;
10653;SDS011;5375;51.250;6.776;2023-04-15T13:37:47;2.00;;;0.77;;
10653;SDS011;5375;51.250;6.776;2023-04-15T13:40:13;5.97;;;1.10;;
10653;SDS011;5375;51.250;6.776;2023-04-15T13:42:39;0.80;;;0.60;;
10653;SDS011;5375;51.250;6.776;2023-04-15T13:45:05;1.17;;;0.70;;
10653;SDS011;5375;51.250;6.776;2023-04-15T13:47:31;1.10;;;1.00;;
10653;SDS011;5375;51.250;6.776;2023-04-15T13:49:56;2.73;;;0.80;;
10653;SDS011;5375;51.250;6.776;2023-04-15T13:52:22;2.20;;;1.03;;
10653;SDS011;5375;51.250;6.776;2023-04-15T13:54:48;2.20;;;0.90;;
10653;SDS011;5375;51.250;6.776;2023-04-15T13:57:14;3.23;;;0.97;;
10653;SDS011;5375;51.250;6.776;2023-04-15T13:59:39;1.60;;;0.90;;
10653;SDS011;5375;51.250;6.776;2023-04-15T14:02:05;1.70;;;0.70;;
10653;SDS011;5375;51.250;6.776;2023-04-15T14:04:31;0.97;;;0.80;;
10653;SDS011;5375;51.250;6.776;2023-04-15T14:06:57;3.20;;;0.80;;
10653;SDS011;5375;51.250;6.776;2023-04-15T14:09:23;1.53;;;0.70;;
10653;SDS011;5375;51.250;6.776;2023-04-15T14:11:49;4.00;;;1.10;;
10653;SDS011;5375;51.250;6.776;2023-04-15T14:14:15;2.97;;;0.83;;
10653;SDS011;5375;51.250;6.776;2023-04-15T14:16:40;1.30;;;0.87;;
10653;SDS011;5375;51.250;6.776;2023-04-15T14:19:06;1.33;;;0.77;;
10653;SDS011;5375;51.250;6.776;2023-04-15T14:21:32;1.73;;;0.90;;
10653;SDS011;5375;51.250;6.776;2023-04-15T14:23:57;4.20;;;0.70;;
10653;SDS011;5375;51.250;6.776;2023-04-15T14:26:23;1.70;;;0.90;;
10653;SDS011;5375;51.250;6.776;2023-04-15T14:28:49;1.38;;;0.80;;
10653;SDS011;5375;51.250;6.776;2023-04-15T14:31:15;2.27;;;0.77;;
10653;SDS011;5375;51.250;6.776;2023-04-15T14:33:41;5.87;;;0.80;;
10653;SDS011;5375;51.250;6.776;2023-04-15T14:36:07;1.63;;;0.87;;
10653;SDS011;5375;51.250;6.776;2023-04-15T14:38:33;2.37;;;0.83;;
10653;SDS011;5375;51.250;6.776;2023-04-15T14:41:04;1.20;;;0.80;;
10653;SDS011;5375;51.250;6.776;2023-04-15T14:43:33;1.83;;;0.93;;
10653;SDS011;5375;51.250;6.776;2023-04-15T14:45:59;1.07;;;0.70;;
10653;SDS011;5375;51.250;6.776;2023-04-15T14:48:24;2.07;;;0.70;;
10653;SDS011;5375;51.250;6.776;2023-04-15T14:50:50;1.30;;;0.80;;
10653;SDS011;5375;51.250;6.776;2023-04-15T14:53:17;1.23;;;0.63;;
10653;SDS011;5375;51.250;6.776;2023-04-15T14:55:42;0.95;;;0.77;;
10653;SDS011;5375;51.250;6.776;2023-04-15T14:58:09;1.67;;;0.67;;
10653;SDS011;5375;51.250;6.776;2023-04-15T15:00:35;1.67;;;0.70;;
10653;SDS011;5375;51.250;6.776;2023-04-15T15:03:04;0.77;;;0.53;;
10653;SDS011;5375;51.250;6.776;2023-04-15T15:05:54;1.10;;;0.70;;
10653;SDS011;5375;51.250;6.776;2023-04-15T15:08:21;1.43;;;0.70;;
10653;SDS011;5375;51.250;6.776;2023-04-15T15:10:47;0.90;;;0.70;;
10653;SDS011;5375;51.250;6.776;2023-04-15T15:13:13;3.80;;;0.80;;
10653;SDS011;5375;51.250;6.776;2023-04-15T15:15:38;2.53;;;0.90;;
10653;SDS011;5375;51.250;6.776;2023-04-15T15:18:04;0.80;;;0.63;;
10653;SDS011;5375;51.250;6.776;2023-04-15T15:20:30;0.70;;;0.60;;
10653;SDS011;5375;51.250;6.776;2023-04-15T15:22:58;2.45;;;0.80;;
10653;SDS011;5375;51.250;6.776;2023-04-15T15:25:24;1.40;;;0.70;;
10653;SDS011;5375;51.250;6.776;2023-04-15T15:27:50;1.53;;;0.80;;
10653;SDS011;5375;51.250;6.776;2023-04-15T15:30:15;4.00;;;0.97;;
10653;SDS011;5375;51.250;6.776;2023-04-15T15:32:41;1.03;;;0.70;;
10653;SDS011;5375;51.250;6.776;2023-04-15T15:35:07;1.10;;;0.60;;
10653;SDS011;5375;51.250;6.776;2023-04-15T15:37:35;1.00;;;0.70;;
10653;SDS011;5375;51.250;6.776;2023-04-15T15:40:03;0.60;;;0.50;;